createdAt,value
2023-03-05T00:00:11.312Z,89.929199
2023-03-05T00:01:19.976Z,89.715576
2023-03-05T00:02:29.774Z,89.715576
2023-03-05T00:03:38.552Z,89.825439
2023-03-05T00:04:46.184Z,89.929199
2023-03-05T00:05:55.867Z,90.032959
2023-03-05T00:07:04.553Z,90.136719
2023-03-05T00:08:13.244Z,90.136719
2023-03-05T00:09:22.949Z,90.240479
2023-03-05T00:10:30.620Z,90.240479
2023-03-05T00:11:40.351Z,90.136719
2023-03-05T00:12:50.117Z,90.136719
2023-03-05T00:13:58.757Z,90.136719
2023-03-05T00:15:08.426Z,90.136719
2023-03-05T00:16:18.299Z,90.136719
2023-03-05T00:17:26.935Z,90.136719
2023-03-05T00:18:36.732Z,90.136719
2023-03-05T00:19:45.434Z,90.240479
2023-03-05T00:20:55.173Z,90.240479
2023-03-05T00:22:02.898Z,90.197754
2023-03-05T00:23:11.591Z,90.197754
2023-03-05T00:24:21.316Z,90.093994
2023-03-05T00:25:30.976Z,90.197754
2023-03-05T00:26:40.684Z,90.197754
2023-03-05T00:27:49.336Z,90.197754
2023-03-05T00:28:59.121Z,90.197754
2023-03-05T00:30:07.786Z,90.197754
2023-03-05T00:31:14.457Z,90.093994
2023-03-05T00:32:23.234Z,89.990234
2023-03-05T00:33:32.840Z,90.093994
2023-03-05T00:34:42.504Z,90.093994
2023-03-05T00:35:51.191Z,90.197754
2023-03-05T00:36:59.892Z,90.197754
2023-03-05T00:38:09.583Z,90.307617
2023-03-05T00:39:19.244Z,90.307617
2023-03-05T00:40:27.968Z,90.307617
2023-03-05T00:41:36.636Z,90.307617
2023-03-05T00:42:46.301Z,90.307617
2023-03-05T00:43:56.049Z,90.307617
2023-03-05T00:45:05.793Z,90.411377
2023-03-05T00:46:15.591Z,90.411377
2023-03-05T00:47:25.214Z,90.411377
2023-03-05T00:48:33.979Z,90.515137
2023-03-05T00:49:43.695Z,90.618896
2023-03-05T00:50:53.500Z,90.618896
2023-03-05T00:52:01.180Z,90.515137
2023-03-05T00:53:09.971Z,90.411377
2023-03-05T00:54:19.689Z,90.411377
2023-03-05T00:55:29.457Z,90.515137
2023-03-05T00:56:38.228Z,90.515137
2023-03-05T00:57:47.903Z,90.515137
2023-03-05T00:58:56.561Z,90.618896
2023-03-05T01:00:06.280Z,90.618896
2023-03-05T01:01:15.016Z,90.618896
2023-03-05T01:02:22.696Z,90.618896
2023-03-05T01:03:32.400Z,90.618896
2023-03-05T01:04:41.092Z,90.722656
2023-03-05T01:05:50.868Z,90.618896
2023-03-05T01:06:59.556Z,90.618896
2023-03-05T01:08:08.227Z,90.722656
2023-03-05T01:09:17.931Z,90.722656
2023-03-05T01:10:25.603Z,90.722656
2023-03-05T01:11:34.285Z,90.722656
2023-03-05T01:12:43.961Z,90.722656
2023-03-05T01:13:52.589Z,90.618896
2023-03-05T01:15:02.245Z,90.618896
2023-03-05T01:16:11.967Z,90.618896
2023-03-05T01:17:20.696Z,90.722656
2023-03-05T01:18:30.357Z,90.826416
2023-03-05T01:19:40.052Z,90.722656
2023-03-05T01:20:47.700Z,90.722656
2023-03-05T01:21:57.423Z,90.722656
2023-03-05T01:23:06.111Z,90.826416
2023-03-05T01:24:14.791Z,90.826416
2023-03-05T01:25:23.486Z,90.826416
2023-03-05T01:26:33.287Z,90.826416
2023-03-05T01:27:42.999Z,90.826416
2023-03-05T01:28:52.662Z,90.826416
2023-03-05T01:30:00.357Z,90.826416
2023-03-05T01:31:10.158Z,90.826416
2023-03-05T01:32:18.924Z,90.930176
2023-03-05T01:33:28.582Z,90.930176
2023-03-05T01:34:38.229Z,91.033936
2023-03-05T01:35:48.013Z,91.143799
2023-03-05T01:36:57.762Z,91.143799
2023-03-05T01:38:06.592Z,91.247559
2023-03-05T01:39:15.259Z,91.351318
2023-03-05T01:40:24.916Z,91.455078
2023-03-05T01:41:35.599Z,91.455078
2023-03-05T01:42:45.345Z,91.455078
2023-03-05T01:43:55.018Z,91.455078
2023-03-05T01:45:03.688Z,91.351318
2023-03-05T01:46:13.402Z,91.351318
2023-03-05T01:47:22.125Z,91.351318
2023-03-05T01:48:31.868Z,91.455078
2023-03-05T01:49:41.542Z,91.455078
2023-03-05T01:50:51.206Z,91.455078
2023-03-05T01:52:01.959Z,91.558838
2023-03-05T01:53:10.645Z,91.558838
2023-03-05T01:54:19.303Z,91.455078
2023-03-05T01:55:29.020Z,91.247559
2023-03-05T01:56:37.701Z,91.351318
2023-03-05T01:57:46.379Z,91.247559
2023-03-05T01:58:56.076Z,91.143799
2023-03-05T02:00:05.763Z,91.247559
2023-03-05T02:01:14.623Z,91.247559
2023-03-05T02:02:23.233Z,91.351318
2023-03-05T02:03:32.118Z,91.308594
2023-03-05T02:04:41.782Z,91.351318
2023-03-05T02:05:51.454Z,91.412354
2023-03-05T02:07:01.163Z,91.351318
2023-03-05T02:08:11.841Z,91.412354
2023-03-05T02:09:21.507Z,91.412354
2023-03-05T02:10:30.192Z,91.412354
2023-03-05T02:11:38.846Z,91.412354
2023-03-05T02:12:47.554Z,91.412354
2023-03-05T02:13:57.299Z,91.412354
2023-03-05T02:15:06.019Z,91.619873
2023-03-05T02:16:14.738Z,91.662598
2023-03-05T02:17:24.468Z,91.662598
2023-03-05T02:18:33.180Z,91.662598
2023-03-05T02:19:41.825Z,91.766357
2023-03-05T02:20:51.573Z,91.870117
2023-03-05T02:22:01.227Z,91.97998
2023-03-05T02:23:10.957Z,91.870117
2023-03-05T02:24:19.719Z,91.870117
2023-03-05T02:25:28.432Z,91.97998
2023-03-05T02:26:38.099Z,91.97998
2023-03-05T02:27:46.778Z,91.97998
2023-03-05T02:28:55.476Z,91.97998
2023-03-05T02:30:05.176Z,91.97998
2023-03-05T02:31:13.852Z,91.97998
2023-03-05T02:32:23.718Z,91.97998
2023-03-05T02:33:31.341Z,91.97998
2023-03-05T02:34:40.146Z,91.97998
2023-03-05T02:35:49.932Z,91.97998
2023-03-05T02:36:59.571Z,91.97998
2023-03-05T02:38:09.385Z,91.97998
2023-03-05T02:39:19.089Z,91.937256
2023-03-05T02:40:27.759Z,91.833496
2023-03-05T02:41:38.498Z,91.833496
2023-03-05T02:42:45.155Z,91.833496
2023-03-05T02:43:54.861Z,91.723633
2023-03-05T02:45:03.536Z,91.723633
2023-03-05T02:46:11.239Z,91.619873
2023-03-05T02:47:20.913Z,91.412354
2023-03-05T02:48:29.642Z,91.308594
2023-03-05T02:49:38.300Z,91.308594
2023-03-05T02:50:47.034Z,91.308594
2023-03-05T02:51:55.728Z,91.204834
2023-03-05T02:53:05.472Z,91.308594
2023-03-05T02:54:15.105Z,91.204834
2023-03-05T02:55:23.795Z,90.997314
2023-03-05T02:56:33.539Z,91.204834
2023-03-05T02:57:42.233Z,91.308594
2023-03-05T02:58:51.927Z,91.308594
2023-03-05T03:00:01.753Z,91.412354
2023-03-05T03:01:11.403Z,91.265869
2023-03-05T03:02:21.040Z,91.308594
2023-03-05T03:03:28.783Z,91.308594
2023-03-05T03:04:36.442Z,91.369629
2023-03-05T03:05:46.115Z,91.369629
2023-03-05T03:06:54.794Z,91.265869
2023-03-05T03:08:04.519Z,91.369629
2023-03-05T03:09:14.222Z,91.162109
2023-03-05T03:10:23.877Z,91.265869
2023-03-05T03:11:33.565Z,91.265869
2023-03-05T03:12:41.294Z,91.369629
2023-03-05T03:13:48.973Z,91.265869
2023-03-05T03:14:58.741Z,91.369629
2023-03-05T03:16:08.420Z,91.473389
2023-03-05T03:17:17.114Z,91.473389
2023-03-05T03:18:24.862Z,91.577148
2023-03-05T03:19:33.532Z,91.687012
2023-03-05T03:20:43.219Z,91.687012
2023-03-05T03:21:52.933Z,91.687012
2023-03-05T03:23:01.925Z,91.687012
2023-03-05T03:24:11.379Z,91.790771
2023-03-05T03:25:20.104Z,91.790771
2023-03-05T03:26:28.748Z,91.790771
2023-03-05T03:27:38.474Z,91.894531
2023-03-05T03:28:47.133Z,91.998291
2023-03-05T03:29:56.886Z,91.998291
2023-03-05T03:31:04.589Z,92.102051
2023-03-05T03:32:12.310Z,92.144775
2023-03-05T03:33:22.064Z,92.102051
2023-03-05T03:34:30.718Z,92.248535
2023-03-05T03:35:41.153Z,92.248535
2023-03-05T03:36:49.784Z,92.352295
2023-03-05T03:37:58.494Z,92.41333
2023-03-05T03:39:08.175Z,92.456055
2023-03-05T03:40:15.930Z,92.41333
2023-03-05T03:41:24.605Z,92.51709
2023-03-05T03:42:34.270Z,92.626953
2023-03-05T03:43:42.943Z,92.626953
2023-03-05T03:44:52.638Z,92.626953
2023-03-05T03:46:00.365Z,92.626953
2023-03-05T03:47:09.908Z,92.626953
2023-03-05T03:48:19.671Z,92.626953
2023-03-05T03:49:27.330Z,92.730713
2023-03-05T03:50:36.029Z,92.834473
2023-03-05T03:51:45.715Z,92.938232
2023-03-05T03:52:54.414Z,92.834473
2023-03-05T03:54:03.163Z,92.834473
2023-03-05T03:55:12.916Z,92.938232
2023-03-05T03:56:22.599Z,92.938232
2023-03-05T03:57:32.297Z,93.041992
2023-03-05T03:58:41.990Z,93.041992
2023-03-05T03:59:51.709Z,93.041992
2023-03-05T04:01:03.334Z,93.145752
2023-03-05T04:02:15.004Z,93.145752
2023-03-05T04:06:03.577Z,93.249512
2023-03-05T04:07:13.242Z,93.145752
2023-03-05T04:08:21.968Z,93.249512
2023-03-05T04:09:31.772Z,93.249512
2023-03-05T04:10:40.511Z,93.249512
2023-03-05T04:11:49.168Z,93.353271
2023-03-05T04:12:58.871Z,93.249512
2023-03-05T04:14:08.585Z,93.145752
2023-03-05T04:15:18.281Z,93.145752
2023-03-05T04:16:28.190Z,93.145752
2023-03-05T04:17:37.887Z,93.249512
2023-03-05T04:18:46.602Z,93.145752
2023-03-05T04:19:55.256Z,93.145752
2023-03-05T04:21:03.947Z,93.145752
2023-03-05T04:22:13.663Z,93.145752
2023-03-05T04:23:21.313Z,93.145752
2023-03-05T04:24:30.044Z,93.145752
2023-03-05T04:25:38.712Z,93.041992
2023-03-05T04:26:46.468Z,92.895508
2023-03-05T04:27:55.119Z,92.895508
2023-03-05T04:29:04.015Z,92.938232
2023-03-05T04:30:13.665Z,92.895508
2023-03-05T04:31:23.556Z,92.791748
2023-03-05T04:32:31.266Z,92.791748
2023-03-05T04:33:38.894Z,92.791748
2023-03-05T04:34:48.608Z,92.895508
2023-03-05T04:35:57.298Z,92.895508
2023-03-05T04:37:05.983Z,92.791748
2023-03-05T04:38:14.763Z,92.687988
2023-03-05T04:39:23.502Z,92.791748
2023-03-05T04:40:33.197Z,92.791748
2023-03-05T04:41:41.023Z,92.791748
2023-03-05T04:42:50.715Z,92.791748
2023-03-05T04:43:58.449Z,92.584229
2023-03-05T04:45:07.132Z,92.584229
2023-03-05T04:46:16.892Z,92.584229
2023-03-05T04:47:25.563Z,92.474365
2023-03-05T04:48:34.210Z,92.370605
2023-03-05T04:49:43.031Z,92.059326
2023-03-05T04:50:51.721Z,91.851807
2023-03-05T04:52:01.553Z,91.748047
2023-03-05T04:53:11.187Z,91.809082
2023-03-05T04:54:18.896Z,91.809082
2023-03-05T04:55:28.587Z,91.705322
2023-03-05T04:56:37.296Z,91.748047
2023-03-05T04:57:45.984Z,91.497803
2023-03-05T04:58:54.664Z,91.497803
2023-03-05T05:00:04.440Z,91.601562
2023-03-05T05:01:14.235Z,91.394043
2023-03-05T05:02:23.933Z,91.394043
2023-03-05T05:03:32.595Z,91.497803
2023-03-05T05:04:42.316Z,91.497803
2023-03-05T05:05:51.033Z,91.497803
2023-03-05T05:07:00.788Z,91.497803
2023-03-05T05:08:09.464Z,91.394043
2023-03-05T05:09:19.124Z,91.394043
2023-03-05T05:10:28.826Z,91.290283
2023-03-05T05:11:36.556Z,91.18042
2023-03-05T05:12:46.280Z,91.290283
2023-03-05T05:13:55.953Z,91.18042
2023-03-05T05:15:05.640Z,91.290283
2023-03-05T05:16:14.350Z,91.290283
2023-03-05T05:17:23.031Z,91.290283
2023-03-05T05:18:32.690Z,91.290283
2023-03-05T05:19:42.473Z,91.394043
2023-03-05T05:20:51.078Z,91.394043
2023-03-05T05:22:00.754Z,91.497803
2023-03-05T05:23:10.447Z,91.601562
2023-03-05T05:24:19.092Z,91.601562
2023-03-05T05:25:27.813Z,91.601562
2023-03-05T05:26:36.466Z,91.601562
2023-03-05T05:27:45.139Z,91.601562
2023-03-05T05:28:54.906Z,91.394043
2023-03-05T05:30:02.617Z,91.290283
2023-03-05T05:31:12.338Z,91.290283
2023-03-05T05:32:22.009Z,91.18042
2023-03-05T05:33:31.671Z,91.18042
2023-03-05T05:34:40.429Z,91.290283
2023-03-05T05:35:50.418Z,91.394043
2023-03-05T05:36:59.926Z,91.394043
2023-03-05T05:38:09.673Z,91.290283
2023-03-05T05:39:20.493Z,91.290283
2023-03-05T05:40:27.050Z,91.290283
2023-03-05T05:41:36.744Z,91.290283
2023-03-05T05:42:45.447Z,91.290283
2023-03-05T05:43:54.112Z,91.18042
2023-03-05T05:45:02.877Z,91.290283
2023-03-05T05:46:11.645Z,91.290283
2023-03-05T05:47:20.162Z,91.290283
2023-03-05T05:48:27.846Z,91.394043
2023-03-05T05:49:35.569Z,91.18042
2023-03-05T05:50:45.246Z,91.290283
2023-03-05T05:51:53.994Z,91.18042
2023-03-05T05:53:03.712Z,91.290283
2023-03-05T05:54:13.391Z,91.07666
2023-03-05T05:55:22.122Z,91.07666
2023-03-05T05:56:31.830Z,91.07666
2023-03-05T05:57:39.538Z,91.07666
2023-03-05T05:58:47.248Z,91.18042
2023-03-05T05:59:56.873Z,91.18042
2023-03-05T06:01:06.545Z,91.07666
2023-03-05T06:02:14.338Z,91.662598
2023-03-05T06:03:22.961Z,91.143799
2023-03-05T06:04:32.708Z,91.143799
2023-03-05T06:05:42.575Z,91.040039
2023-03-05T06:06:52.225Z,91.040039
2023-03-05T06:08:01.979Z,90.930176
2023-03-05T06:09:11.642Z,90.826416
2023-03-05T06:10:20.290Z,90.722656
2023-03-05T06:11:30.034Z,90.722656
2023-03-05T06:12:38.723Z,90.826416
2023-03-05T06:13:47.382Z,90.930176
2023-03-05T06:14:57.064Z,90.826416
2023-03-05T06:16:04.793Z,90.930176
2023-03-05T06:17:19.279Z,90.826416
2023-03-05T06:18:25.129Z,90.826416
2023-03-05T06:19:33.787Z,90.826416
2023-03-05T06:20:43.597Z,90.826416
2023-03-05T06:21:52.358Z,90.930176
2023-03-05T06:23:01.063Z,90.722656
2023-03-05T06:24:10.723Z,90.722656
2023-03-05T06:25:19.395Z,90.618896
2023-03-05T06:26:27.078Z,90.618896
2023-03-05T06:27:37.741Z,90.618896
2023-03-05T06:28:47.383Z,90.618896
2023-03-05T06:29:56.060Z,90.679932
2023-03-05T06:31:04.768Z,90.576172
2023-03-05T06:32:14.449Z,90.576172
2023-03-05T06:33:25.091Z,90.368652
2023-03-05T06:34:34.802Z,90.472412
2023-03-05T06:35:42.653Z,90.472412
2023-03-05T06:36:52.314Z,90.472412
2023-03-05T06:38:01.060Z,90.368652
2023-03-05T06:39:09.748Z,90.368652
2023-03-05T06:40:18.401Z,90.368652
2023-03-05T06:41:27.144Z,90.264893
2023-03-05T06:42:36.851Z,90.264893
2023-03-05T06:43:46.526Z,90.264893
2023-03-05T06:44:56.195Z,90.161133
2023-03-05T06:46:04.950Z,90.161133
2023-03-05T06:47:13.675Z,90.264893
2023-03-05T06:48:23.505Z,90.161133
2023-03-05T06:49:33.179Z,90.014648
2023-03-05T06:50:41.848Z,90.014648
2023-03-05T06:51:51.559Z,90.014648
2023-03-05T06:53:00.347Z,90.014648
2023-03-05T06:54:10.045Z,90.014648
2023-03-05T06:55:19.711Z,90.014648
2023-03-05T06:56:29.469Z,90.014648
2023-03-05T06:57:39.139Z,89.910889
2023-03-05T06:58:47.861Z,89.807129
2023-03-05T06:59:56.452Z,89.910889
2023-03-05T07:01:06.208Z,89.703369
2023-03-05T07:02:14.999Z,89.807129
2023-03-05T07:03:24.747Z,89.807129
2023-03-05T07:04:33.441Z,89.910889
2023-03-05T07:05:41.102Z,89.910889
2023-03-05T07:06:50.796Z,90.118408
2023-03-05T07:07:59.523Z,90.222168
2023-03-05T07:09:08.183Z,90.118408
2023-03-05T07:10:16.871Z,90.014648
2023-03-05T07:11:26.572Z,89.910889
2023-03-05T07:12:36.300Z,89.910889
2023-03-05T07:13:43.954Z,89.910889
2023-03-05T07:14:51.733Z,89.910889
2023-03-05T07:16:01.469Z,90.014648
2023-03-05T07:17:10.140Z,90.118408
2023-03-05T07:18:18.801Z,90.222168
2023-03-05T07:19:28.501Z,90.222168
2023-03-05T07:20:38.206Z,90.222168
2023-03-05T07:21:48.018Z,90.222168
2023-03-05T07:22:55.677Z,90.325928
2023-03-05T07:24:03.316Z,90.222168
2023-03-05T07:25:13.043Z,90.222168
2023-03-05T07:26:21.746Z,90.325928
2023-03-05T07:27:30.398Z,90.222168
2023-03-05T07:28:39.095Z,90.118408
2023-03-05T07:29:47.752Z,90.118408
2023-03-05T07:30:57.579Z,90.222168
2023-03-05T07:32:05.193Z,90.222168
2023-03-05T07:33:12.867Z,90.118408
2023-03-05T07:34:22.612Z,90.118408
2023-03-05T07:35:32.315Z,90.185547
2023-03-05T07:36:40.972Z,90.185547
2023-03-05T07:37:49.786Z,90.185547
2023-03-05T07:38:58.493Z,90.289307
2023-03-05T07:40:08.171Z,90.289307
2023-03-05T07:41:16.849Z,90.393066
2023-03-05T07:42:26.625Z,90.393066
2023-03-05T07:43:36.316Z,90.393066
2023-03-05T07:44:45.046Z,90.393066
2023-03-05T07:45:54.720Z,90.496826
2023-03-05T07:47:03.462Z,90.704346
2023-03-05T07:48:13.136Z,90.600586
2023-03-05T07:49:22.807Z,90.496826
2023-03-05T07:50:30.565Z,90.393066
2023-03-05T07:51:39.278Z,90.496826
2023-03-05T07:52:48.957Z,90.600586
2023-03-05T07:53:57.690Z,90.600586
2023-03-05T07:55:06.318Z,90.704346
2023-03-05T07:56:15.020Z,90.600586
2023-03-05T07:57:23.771Z,90.393066
2023-03-05T07:58:33.478Z,90.393066
2023-03-05T07:59:43.181Z,90.496826
2023-03-05T08:00:51.820Z,90.600586
2023-03-05T08:02:01.702Z,90.557861
2023-03-05T08:03:11.369Z,90.393066
2023-03-05T08:04:20.126Z,90.454102
2023-03-05T08:05:28.796Z,90.350342
2023-03-05T08:06:38.483Z,90.246582
2023-03-05T08:07:48.128Z,89.935303
2023-03-05T08:08:57.841Z,89.935303
2023-03-05T08:10:06.576Z,89.831543
2023-03-05T08:11:16.254Z,89.935303
2023-03-05T08:12:24.982Z,89.727783
2023-03-05T08:13:33.665Z,89.624023
2023-03-05T08:14:43.352Z,89.520264
2023-03-05T08:15:53.210Z,89.520264
2023-03-05T08:17:02.894Z,89.520264
2023-03-05T08:18:12.571Z,89.4104
2023-03-05T08:19:19.231Z,89.306641
2023-03-05T08:20:28.925Z,89.4104
2023-03-05T08:21:37.632Z,89.4104
2023-03-05T08:22:46.318Z,89.306641
2023-03-05T08:23:55.008Z,89.306641
2023-03-05T08:25:04.699Z,89.202881
2023-03-05T08:26:14.428Z,89.202881
2023-03-05T08:27:22.131Z,89.306641
2023-03-05T08:28:32.027Z,89.202881
2023-03-05T08:29:40.529Z,89.788818
2023-03-05T08:30:49.241Z,89.581299
2023-03-05T08:31:58.001Z,88.95874
2023-03-05T08:33:06.633Z,88.95874
2023-03-05T08:34:15.383Z,89.0625
2023-03-05T08:35:25.165Z,89.099121
2023-03-05T08:36:32.804Z,89.16626
2023-03-05T08:37:40.503Z,89.27002
2023-03-05T08:38:50.250Z,89.16626
2023-03-05T08:39:58.975Z,88.95874
2023-03-05T08:41:08.673Z,89.0625
2023-03-05T08:42:18.337Z,88.85498
2023-03-05T08:43:27.066Z,88.745117
2023-03-05T08:44:35.711Z,88.604736
2023-03-05T08:45:45.411Z,88.293457
2023-03-05T08:46:55.275Z,88.122559
2023-03-05T08:48:04.889Z,88.293457
2023-03-05T08:49:14.582Z,88.604736
2023-03-05T08:50:24.337Z,88.397217
2023-03-05T08:51:33.006Z,88.189697
2023-03-05T08:52:42.719Z,88.085938
2023-03-05T08:53:52.452Z,88.293457
2023-03-05T08:55:02.113Z,88.293457
2023-03-05T08:56:11.773Z,88.189697
2023-03-05T08:57:20.474Z,88.085938
2023-03-05T08:58:28.120Z,87.664795
2023-03-05T08:59:36.816Z,87.768555
2023-03-05T09:00:45.552Z,87.878418
2023-03-05T09:01:54.267Z,87.768555
2023-03-05T09:03:03.085Z,87.878418
2023-03-05T09:04:11.691Z,87.982178
2023-03-05T09:05:21.516Z,88.043213
2023-03-05T09:06:30.263Z,87.939453
2023-03-05T09:07:39.149Z,87.628174
2023-03-05T09:08:48.863Z,87.27417
2023-03-05T09:09:57.557Z,86.859131
2023-03-05T09:11:06.240Z,86.444092
2023-03-05T09:12:15.019Z,86.132812
2023-03-05T09:13:23.733Z,86.236572
2023-03-05T09:14:33.408Z,86.193848
2023-03-05T09:15:42.062Z,86.193848
2023-03-05T09:16:50.762Z,85.675049
2023-03-05T09:18:00.469Z,85.882568
2023-03-05T09:19:09.134Z,85.778809
2023-03-05T09:20:17.839Z,85.778809
2023-03-05T09:21:26.510Z,85.778809
2023-03-05T09:22:36.201Z,85.571289
2023-03-05T09:23:45.889Z,85.675049
2023-03-05T09:24:55.611Z,85.327148
2023-03-05T09:26:04.308Z,85.05249
2023-03-05T09:27:13.996Z,85.36377
2023-03-05T09:28:23.767Z,85.675049
2023-03-05T09:29:33.507Z,85.36377
2023-03-05T09:30:42.210Z,85.26001
2023-03-05T09:31:51.030Z,85.467529
2023-03-05T09:33:00.714Z,85.26001
2023-03-05T09:34:09.399Z,85.15625
2023-03-05T09:35:18.252Z,85.15625
2023-03-05T09:36:27.764Z,85.36377
2023-03-05T09:37:37.472Z,85.571289
2023-03-05T09:38:46.172Z,85.571289
2023-03-05T09:39:55.908Z,85.882568
2023-03-05T09:41:04.613Z,85.778809
2023-03-05T09:42:14.290Z,85.882568
2023-03-05T09:43:23.039Z,85.675049
2023-03-05T09:44:32.836Z,85.675049
2023-03-05T09:45:48.652Z,85.467529
2023-03-05T09:46:57.239Z,85.986328
2023-03-05T09:48:05.980Z,85.882568
2023-03-05T09:49:15.678Z,85.986328
2023-03-05T09:50:23.404Z,85.571289
2023-03-05T09:51:33.096Z,85.882568
2023-03-05T09:52:42.835Z,85.986328
2023-03-05T09:53:51.577Z,85.986328
2023-03-05T09:54:59.247Z,85.986328
2023-03-05T09:56:09.004Z,86.193848
2023-03-05T09:57:17.704Z,86.193848
2023-03-05T09:58:27.377Z,86.193848
2023-03-05T09:59:35.036Z,85.571289
2023-03-05T10:00:44.736Z,85.675049
2023-03-05T10:01:54.412Z,85.467529
2023-03-05T10:03:03.224Z,85.778809
2023-03-05T10:04:13.684Z,85.467529
2023-03-05T10:05:24.209Z,85.571289
2023-03-05T10:06:31.883Z,85.675049
2023-03-05T10:07:41.539Z,85.675049
2023-03-05T10:08:50.222Z,85.675049
2023-03-05T10:09:58.869Z,85.778809
2023-03-05T10:11:08.587Z,85.614014
2023-03-05T10:12:17.314Z,85.717773
2023-03-05T10:13:26.021Z,86.132812
2023-03-05T10:14:35.713Z,86.132812
2023-03-05T10:15:45.374Z,86.236572
2023-03-05T10:16:55.129Z,86.444092
2023-03-05T10:18:03.750Z,86.444092
2023-03-05T10:19:12.476Z,86.444092
2023-03-05T10:20:22.181Z,86.547852
2023-03-05T10:21:30.859Z,86.407471
2023-03-05T10:22:40.567Z,85.882568
2023-03-05T10:23:50.241Z,85.882568
2023-03-05T10:24:59.896Z,85.882568
2023-03-05T10:26:08.576Z,85.742188
2023-03-05T10:27:17.280Z,85.119629
2023-03-05T10:28:26.109Z,85.05249
2023-03-05T10:29:35.764Z,85.15625
2023-03-05T10:30:45.434Z,85.36377
2023-03-05T10:31:54.256Z,85.571289
2023-03-05T10:33:02.824Z,85.36377
2023-03-05T10:34:11.508Z,85.36377
2023-03-05T10:35:21.241Z,85.26001
2023-03-05T10:36:29.853Z,85.26001
2023-03-05T10:37:39.504Z,85.223389
2023-03-05T10:38:48.252Z,85.119629
2023-03-05T10:39:55.860Z,85.223389
2023-03-05T10:41:05.559Z,84.637451
2023-03-05T10:42:15.223Z,84.533691
2023-03-05T10:43:23.873Z,85.15625
2023-03-05T10:44:32.577Z,85.05249
2023-03-05T10:45:40.279Z,85.223389
2023-03-05T10:46:50.916Z,85.015869
2023-03-05T10:48:00.575Z,85.223389
2023-03-05T10:49:08.248Z,85.015869
2023-03-05T10:50:17.938Z,84.185791
2023-03-05T10:51:26.601Z,84.14917
2023-03-05T10:52:36.278Z,83.94165
2023-03-05T10:53:45.969Z,83.837891
2023-03-05T10:54:54.648Z,83.734131
2023-03-05T10:56:04.314Z,83.526611
2023-03-05T10:57:13.972Z,83.111572
2023-03-05T10:58:24.701Z,83.276367
2023-03-05T10:59:33.335Z,83.380127
2023-03-05T11:00:42.977Z,83.483887
2023-03-05T11:01:52.665Z,82.342529
2023-03-05T11:03:02.324Z,82.23877
2023-03-05T11:04:10.025Z,82.342529
2023-03-05T11:05:19.710Z,82.550049
2023-03-05T11:06:27.379Z,82.861328
2023-03-05T11:07:37.064Z,82.861328
2023-03-05T11:08:46.800Z,82.757568
2023-03-05T11:09:55.515Z,83.068848
2023-03-05T11:11:04.260Z,82.653809
2023-03-05T11:12:13.831Z,82.446289
2023-03-05T11:13:23.515Z,82.446289
2023-03-05T11:14:33.195Z,82.550049
2023-03-05T11:15:40.912Z,82.861328
2023-03-05T11:16:49.518Z,82.446289
2023-03-05T11:17:59.197Z,82.757568
2023-03-05T11:19:06.839Z,82.446289
2023-03-05T11:20:15.537Z,82.342529
2023-03-05T11:21:24.232Z,82.446289
2023-03-05T11:22:33.889Z,82.653809
2023-03-05T11:23:43.616Z,82.342529
2023-03-05T11:24:51.291Z,81.92749
2023-03-05T11:25:59.945Z,81.616211
2023-03-05T11:27:09.660Z,81.616211
2023-03-05T11:28:30.894Z,81.92749
2023-03-05T11:29:28.945Z,82.342529
2023-03-05T11:30:37.756Z,82.550049
2023-03-05T11:31:46.373Z,82.342529
2023-03-05T11:32:56.066Z,82.757568
2023-03-05T11:34:04.739Z,82.757568
2023-03-05T11:35:12.571Z,82.653809
2023-03-05T11:36:22.235Z,82.446289
2023-03-05T11:37:31.896Z,82.409668
2023-03-05T11:38:41.597Z,82.305908
2023-03-05T11:39:48.304Z,82.305908
2023-03-05T11:40:57.978Z,81.68335
2023-03-05T11:42:07.640Z,81.787109
2023-03-05T11:43:16.366Z,81.68335
2023-03-05T11:44:24.012Z,81.57959
2023-03-05T11:45:33.715Z,81.890869
2023-03-05T11:46:42.374Z,82.098389
2023-03-05T11:47:52.036Z,82.202148
2023-03-05T11:49:00.751Z,82.305908
2023-03-05T11:50:09.447Z,82.409668
2023-03-05T11:51:19.096Z,82.476807
2023-03-05T11:52:28.767Z,82.684326
2023-03-05T11:53:36.425Z,82.269287
2023-03-05T11:54:46.101Z,82.165527
2023-03-05T11:55:55.833Z,81.750488
2023-03-05T11:57:04.562Z,81.854248
2023-03-05T11:58:12.212Z,81.750488
2023-03-05T11:59:20.919Z,81.854248
2023-03-05T12:00:30.617Z,82.269287
2023-03-05T12:01:39.273Z,82.269287
2023-03-05T12:02:47.977Z,81.958008
2023-03-05T12:03:57.657Z,82.476807
2023-03-05T12:05:07.345Z,82.269287
2023-03-05T12:06:16.020Z,82.373047
2023-03-05T12:07:25.934Z,82.580566
2023-03-05T12:08:33.352Z,82.269287
2023-03-05T12:09:43.063Z,82.476807
2023-03-05T12:10:50.785Z,82.684326
2023-03-05T12:11:58.467Z,82.373047
2023-03-05T12:13:08.172Z,82.232666
2023-03-05T12:14:16.808Z,82.025146
2023-03-05T12:15:25.541Z,82.092285
2023-03-05T12:16:35.295Z,81.158447
2023-03-05T12:17:44.866Z,81.121826
2023-03-05T12:18:54.532Z,80.810547
2023-03-05T12:20:02.250Z,81.018066
2023-03-05T12:21:11.130Z,80.187988
2023-03-05T12:22:20.872Z,79.736328
2023-03-05T12:23:29.617Z,78.912354
2023-03-05T12:24:38.296Z,77.874756
2023-03-05T12:25:47.002Z,77.362061
2023-03-05T12:26:56.707Z,77.258301
2023-03-05T12:28:06.423Z,77.770996
2023-03-05T12:29:14.094Z,77.874756
2023-03-05T12:30:24.506Z,77.325439
2023-03-05T12:31:32.541Z,77.362061
2023-03-05T12:32:42.936Z,77.532959
2023-03-05T12:33:51.906Z,76.391602
2023-03-05T12:35:00.589Z,75.775146
2023-03-05T12:36:09.316Z,75.152588
2023-03-05T12:37:17.989Z,74.841309
2023-03-05T12:38:27.663Z,74.432373
2023-03-05T12:39:37.321Z,73.944092
2023-03-05T12:40:46.098Z,74.462891
2023-03-05T12:41:54.801Z,74.77417
2023-03-05T12:43:03.546Z,74.255371
2023-03-05T12:44:12.196Z,73.431396
2023-03-05T12:45:21.882Z,73.535156
2023-03-05T12:46:30.681Z,74.151611
2023-03-05T12:47:40.628Z,74.255371
2023-03-05T12:48:48.967Z,73.638916
2023-03-05T12:49:56.747Z,73.944092
2023-03-05T12:51:05.497Z,73.944092
2023-03-05T12:52:15.238Z,74.255371
2023-03-05T12:53:24.943Z,74.121094
2023-03-05T12:54:31.636Z,73.706055
2023-03-05T12:55:40.371Z,73.809814
2023-03-05T12:56:49.192Z,73.944092
2023-03-05T12:57:58.856Z,74.633789
2023-03-05T12:59:06.551Z,74.737549
2023-03-05T13:00:15.223Z,73.913574
2023-03-05T13:01:24.943Z,73.706055
2023-03-05T13:02:34.643Z,73.431396
2023-03-05T13:03:44.383Z,73.840332
2023-03-05T13:04:53.996Z,73.327637
2023-03-05T13:06:02.702Z,73.083496
2023-03-05T13:07:12.490Z,72.875977
2023-03-05T13:08:20.199Z,72.637939
2023-03-05T13:09:29.154Z,71.948242
2023-03-05T13:10:38.741Z,72.052002
2023-03-05T13:11:47.538Z,71.875
2023-03-05T13:12:56.135Z,72.845459